Killam, Canada
Current Conditions -  °F | °C
As of 4:00 AM on Friday 31 Oct 2014 (Local Time) from CYEG Reporting Station
Broken Clouds Broken Clouds  
Wind Chill: 29°   Ceiling: 24000
Heat Index: 37°   Visibility: 15mi
Dew Point: 34°   Wind: 15mph
Humidity: 87%   Direction: 140°SE
Pressure: 29.68"   Gusts: 22mph
Location:  52.78°N, 111.85°W
Report Text: CYEG 311000Z 14013G19KT 15SM FEW010 FEW120 BKN240 03/01 A2968 RMK SF1AC1CI7 SF TR AC TR SLP076
Loading
Personal Weather Stations






























Interactive Weather Map
Tropical Storm Tracking
New forecast layout! Learn more

10-Day Weather Forecast

Advertisements
Track Severe Weather on mobile